createdAt,value
2022-11-24T00:01:18.776Z,1.70
2022-11-24T00:04:07.701Z,1.70
2022-11-24T00:06:55.099Z,1.80
2022-11-24T00:09:42.975Z,1.80
2022-11-24T00:12:31.767Z,1.70
2022-11-24T00:15:19.071Z,1.80
2022-11-24T00:18:06.389Z,1.70
2022-11-24T00:20:53.866Z,1.70
2022-11-24T00:23:41.074Z,1.70
2022-11-24T00:26:29.970Z,1.70
2022-11-24T00:29:18.598Z,1.70
2022-11-24T00:32:07.127Z,1.70
2022-11-24T00:34:54.408Z,1.60
2022-11-24T00:37:41.910Z,1.60
2022-11-24T00:40:34.722Z,1.50
2022-11-24T00:43:22.443Z,1.50
2022-11-24T00:46:11.444Z,1.60
2022-11-24T00:49:00.290Z,1.60
2022-11-24T00:51:47.851Z,1.70
2022-11-24T00:54:35.596Z,1.60
2022-11-24T00:57:23.116Z,1.60
2022-11-24T01:00:11.299Z,1.60
2022-11-24T01:03:00.221Z,1.50
2022-11-24T01:05:48.197Z,1.60
2022-11-24T01:08:35.772Z,1.50
2022-11-24T01:11:25.306Z,1.60
2022-11-24T01:14:13.125Z,1.50
2022-11-24T01:17:00.617Z,1.60
2022-11-24T01:19:49.304Z,1.60
2022-11-24T01:22:38.302Z,1.60
2022-11-24T01:25:25.993Z,1.50
2022-11-24T01:28:13.249Z,1.50
2022-11-24T01:31:00.755Z,1.50
2022-11-24T01:33:48.451Z,1.40
2022-11-24T01:36:37.431Z,1.50
2022-11-24T01:39:24.695Z,1.50
2022-11-24T01:42:12.463Z,1.50
2022-11-24T01:45:32.343Z,1.40
2022-11-24T01:48:27.609Z,1.40
2022-11-24T01:51:18.887Z,1.40
2022-11-24T01:54:12.519Z,1.40
2022-11-24T01:57:09.209Z,1.40
2022-11-24T02:00:00.836Z,1.40
2022-11-24T02:02:48.663Z,1.40
2022-11-24T02:05:42.318Z,1.50
2022-11-24T02:08:35.250Z,1.40
2022-11-24T02:11:25.703Z,1.50
2022-11-24T02:14:16.188Z,1.50
2022-11-24T02:17:03.503Z,1.50
2022-11-24T02:19:57.028Z,1.50
2022-11-24T02:22:50.940Z,1.50
2022-11-24T02:25:54.225Z,1.60
2022-11-24T02:28:43.256Z,1.60
2022-11-24T02:31:30.919Z,1.60
2022-11-24T02:34:18.111Z,1.60
2022-11-24T02:37:05.677Z,1.70
2022-11-24T02:39:53.191Z,1.70
2022-11-24T02:42:45.571Z,1.60
2022-11-24T02:45:34.077Z,1.60
2022-11-24T02:48:21.214Z,1.70
2022-11-24T02:51:09.261Z,1.60
2022-11-24T02:53:56.766Z,1.70
2022-11-24T02:56:43.971Z,1.60
2022-11-24T02:59:31.385Z,1.60
2022-11-24T03:02:20.812Z,1.60
2022-11-24T03:05:08.692Z,1.60
2022-11-24T03:07:56.276Z,1.50
2022-11-24T03:10:43.699Z,1.60
2022-11-24T03:13:31.149Z,1.50
2022-11-24T03:16:18.696Z,1.50
2022-11-24T03:19:07.503Z,1.50
2022-11-24T03:21:54.879Z,1.50
2022-11-24T03:24:42.479Z,1.40
2022-11-24T03:27:31.141Z,1.40
2022-11-24T03:30:18.873Z,1.40
2022-11-24T03:33:07.203Z,1.40
2022-11-24T03:35:56.490Z,1.40
2022-11-24T03:38:44.213Z,1.40
2022-11-24T03:41:31.656Z,1.40
2022-11-24T03:44:19.318Z,1.40
2022-11-24T03:47:07.039Z,1.50
2022-11-24T03:49:54.446Z,1.50
2022-11-24T03:52:43.135Z,1.40
2022-11-24T03:55:30.525Z,1.30
2022-11-24T03:58:17.849Z,1.30
2022-11-24T04:01:05.559Z,1.30
2022-11-24T04:03:53.013Z,1.40
2022-11-24T04:06:40.844Z,1.30
2022-11-24T04:09:30.010Z,1.20
2022-11-24T04:12:35.250Z,1.30
2022-11-24T04:15:22.985Z,1.30
2022-11-24T04:18:11.362Z,1.30
2022-11-24T04:20:59.218Z,1.30
2022-11-24T04:23:46.489Z,1.40
2022-11-24T04:26:35.272Z,1.40
2022-11-24T04:29:22.479Z,1.30
2022-11-24T04:32:10.003Z,1.20
2022-11-24T04:34:57.628Z,1.20
2022-11-24T04:37:44.923Z,1.20
2022-11-24T04:40:32.380Z,1.20
2022-11-24T04:43:21.816Z,1.30
2022-11-24T04:46:12.178Z,1.30
2022-11-24T04:48:59.529Z,1.20
2022-11-24T04:51:47.134Z,1.20
2022-11-24T04:54:34.504Z,1.20
2022-11-24T04:57:23.965Z,1.20
2022-11-24T05:00:13.978Z,1.30
2022-11-24T05:03:01.108Z,1.30
2022-11-24T05:05:48.566Z,1.30
2022-11-24T05:08:36.048Z,1.20
2022-11-24T05:11:23.462Z,1.30
2022-11-24T05:14:10.768Z,1.20
2022-11-24T05:16:59.432Z,1.20
2022-11-24T05:19:46.901Z,1.10
2022-11-24T05:22:34.182Z,1.10
2022-11-24T05:25:21.901Z,1.00
2022-11-24T05:28:10.933Z,1.00
2022-11-24T05:31:00.686Z,1.00
2022-11-24T05:33:50.342Z,0.90
2022-11-24T05:36:56.263Z,0.90
2022-11-24T05:39:43.383Z,0.90
2022-11-24T05:42:47.292Z,0.90
2022-11-24T05:45:35.242Z,0.80
2022-11-24T05:48:22.644Z,0.90
2022-11-24T05:51:11.240Z,0.90
2022-11-24T05:53:58.366Z,0.90
2022-11-24T05:56:45.816Z,0.70
2022-11-24T05:59:33.084Z,0.90
2022-11-24T06:02:20.693Z,0.80
2022-11-24T06:05:09.061Z,0.80
2022-11-24T06:07:59.717Z,0.80
2022-11-24T06:10:47.213Z,0.70
2022-11-24T06:13:34.635Z,0.70
2022-11-24T06:16:22.238Z,0.70
2022-11-24T06:19:10.790Z,0.80
2022-11-24T06:21:58.488Z,0.80
2022-11-24T06:24:50.159Z,0.80
2022-11-24T06:27:37.265Z,0.80
2022-11-24T06:30:24.698Z,0.80
2022-11-24T06:33:12.322Z,0.80
2022-11-24T06:36:03.408Z,0.70
2022-11-24T06:38:50.594Z,0.70
2022-11-24T06:41:39.553Z,0.80
2022-11-24T06:44:26.853Z,0.70
2022-11-24T06:47:14.145Z,0.80
2022-11-24T06:50:01.586Z,0.80
2022-11-24T06:52:48.907Z,0.80
2022-11-24T06:55:36.467Z,0.80
2022-11-24T06:58:24.877Z,0.80
2022-11-24T07:01:15.935Z,1.00
2022-11-24T07:04:04.400Z,0.90
2022-11-24T07:06:51.524Z,0.90
2022-11-24T07:09:39.125Z,0.90
2022-11-24T07:12:26.400Z,0.90
2022-11-24T07:15:15.236Z,0.90
2022-11-24T07:18:02.973Z,0.80
2022-11-24T07:20:51.773Z,0.90
2022-11-24T07:23:40.696Z,1.00
2022-11-24T07:26:28.945Z,1.00
2022-11-24T07:29:16.488Z,1.00
2022-11-24T07:32:06.105Z,1.00
2022-11-24T07:34:53.747Z,1.00
2022-11-24T07:37:41.485Z,1.10
2022-11-24T07:40:30.274Z,1.10
2022-11-24T07:43:20.443Z,1.10
2022-11-24T07:46:13.054Z,1.10
2022-11-24T07:49:01.657Z,1.10
2022-11-24T07:51:48.973Z,1.20
2022-11-24T07:54:36.613Z,1.20
2022-11-24T07:57:24.543Z,1.20
2022-11-24T08:00:14.088Z,1.30
2022-11-24T08:03:02.484Z,1.30
2022-11-24T08:06:22.096Z,1.40
2022-11-24T08:09:03.604Z,1.30
2022-11-24T08:11:51.083Z,1.40
2022-11-24T08:14:38.436Z,1.40
2022-11-24T08:17:25.858Z,1.30
2022-11-24T08:20:13.350Z,1.40
2022-11-24T08:23:02.196Z,1.40
2022-11-24T08:25:54.152Z,1.40
2022-11-24T08:28:43.976Z,1.40
2022-11-24T08:31:34.214Z,1.40
2022-11-24T08:34:21.352Z,1.50
2022-11-24T08:37:08.747Z,1.60
2022-11-24T08:39:57.566Z,1.60
2022-11-24T08:42:44.842Z,1.60
2022-11-24T08:45:35.441Z,1.60
2022-11-24T08:48:26.759Z,1.60
2022-11-24T08:51:17.002Z,1.70
2022-11-24T08:54:04.475Z,1.70
2022-11-24T08:56:53.079Z,1.70
2022-11-24T08:59:40.240Z,1.60
2022-11-24T09:02:27.777Z,1.70
2022-11-24T09:05:43.609Z,1.80
2022-11-24T09:08:23.562Z,1.80
2022-11-24T09:11:13.484Z,1.80
2022-11-24T09:14:02.499Z,2.00
2022-11-24T09:16:49.702Z,2.00
2022-11-24T09:19:37.442Z,2.00
2022-11-24T09:22:24.530Z,2.00
2022-11-24T09:25:11.888Z,2.00
2022-11-24T09:27:59.940Z,2.10
2022-11-24T09:30:48.745Z,2.20
2022-11-24T09:33:37.254Z,2.20
2022-11-24T09:36:25.398Z,2.10
2022-11-24T09:39:13.048Z,2.10
2022-11-24T09:42:13.642Z,2.10
2022-11-24T09:45:48.977Z,2.10
2022-11-24T09:48:38.806Z,2.20
2022-11-24T09:51:29.453Z,2.30
2022-11-24T09:54:21.818Z,2.30
2022-11-24T09:57:12.965Z,2.30
2022-11-24T10:00:04.119Z,2.40
2022-11-24T10:02:59.078Z,2.50
2022-11-24T10:05:51.031Z,2.60
2022-11-24T10:09:04.339Z,2.70
2022-11-24T10:12:03.615Z,2.80
2022-11-24T10:15:18.782Z,2.90
2022-11-24T10:18:30.165Z,3.00
2022-11-24T10:21:46.564Z,3.00
2022-11-24T10:25:10.870Z,3.10
2022-11-24T10:28:01.929Z,3.20
2022-11-24T10:30:50.541Z,3.10
2022-11-24T10:33:38.210Z,3.20
2022-11-24T10:36:38.538Z,3.20
2022-11-24T10:39:33.592Z,3.30
2022-11-24T10:42:27.621Z,3.40
2022-11-24T10:45:16.650Z,3.60
2022-11-24T10:48:04.598Z,3.80
2022-11-24T10:50:55.219Z,3.90
2022-11-24T10:53:44.270Z,3.90
2022-11-24T10:56:40.318Z,4.00
2022-11-24T10:59:35.986Z,4.00
2022-11-24T11:02:36.606Z,4.20
2022-11-24T11:05:41.732Z,4.30
2022-11-24T11:08:30.811Z,4.50
2022-11-24T11:11:28.196Z,4.50
2022-11-24T11:14:31.103Z,4.50
2022-11-24T11:17:36.828Z,4.60
2022-11-24T11:20:29.742Z,4.70
2022-11-24T11:23:22.321Z,4.60
2022-11-24T11:26:21.163Z,4.50
2022-11-24T11:35:36.106Z,4.50
2022-11-24T11:38:23.374Z,4.40
2022-11-24T11:41:20.288Z,4.50
2022-11-24T11:44:23.304Z,4.50
2022-11-24T11:47:18.648Z,4.50
2022-11-24T11:50:13.177Z,4.50
2022-11-24T11:53:15.336Z,4.50
2022-11-24T11:56:16.785Z,4.50
2022-11-24T11:59:42.218Z,4.60
2022-11-24T12:02:54.517Z,4.60
2022-11-24T12:05:48.942Z,4.70
2022-11-24T12:09:18.051Z,4.70
2022-11-24T12:12:09.714Z,4.80
2022-11-24T12:15:11.039Z,4.80
2022-11-24T12:18:06.818Z,4.80
2022-11-24T12:21:03.794Z,4.80
2022-11-24T12:24:01.173Z,4.80
2022-11-24T12:26:54.203Z,4.70
2022-11-24T12:29:59.087Z,4.80
2022-11-24T12:33:09.778Z,4.80
2022-11-24T12:36:04.428Z,4.90
2022-11-24T12:39:02.775Z,4.90
2022-11-24T12:42:02.793Z,5.00
2022-11-24T12:45:14.087Z,5.00
2022-11-24T12:48:29.696Z,5.00
2022-11-24T12:51:20.136Z,5.10
2022-11-24T12:54:18.278Z,5.10
2022-11-24T12:57:13.125Z,5.20
2022-11-24T13:00:06.631Z,5.30
2022-11-24T13:03:12.743Z,5.30
2022-11-24T13:06:09.950Z,5.40
2022-11-24T13:08:57.953Z,5.40
2022-11-24T13:11:46.233Z,5.30
2022-11-24T13:14:37.475Z,5.30
2022-11-24T13:17:36.297Z,5.30
2022-11-24T13:20:36.202Z,5.20
2022-11-24T13:23:28.855Z,5.30
2022-11-24T13:26:29.365Z,5.30
2022-11-24T13:29:33.718Z,5.30
2022-11-24T13:32:48.149Z,5.20
2022-11-24T13:35:35.404Z,5.30
2022-11-24T13:38:42.611Z,5.30
2022-11-24T13:42:10.432Z,5.30
2022-11-24T13:45:52.313Z,5.30
2022-11-24T13:49:01.171Z,5.30
2022-11-24T13:51:48.725Z,5.30
2022-11-24T13:54:42.686Z,5.30
2022-11-24T13:57:34.746Z,5.40
2022-11-24T14:00:24.235Z,5.40
2022-11-24T14:03:21.653Z,5.40
2022-11-24T14:06:17.828Z,5.30
2022-11-24T14:09:33.749Z,5.40
2022-11-24T14:12:24.349Z,5.50
2022-11-24T14:15:23.559Z,5.50
2022-11-24T14:18:18.190Z,5.40
2022-11-24T14:21:27.506Z,5.40
2022-11-24T14:24:35.439Z,5.30
2022-11-24T14:27:31.216Z,5.30
2022-11-24T14:30:21.220Z,5.20
2022-11-24T14:33:13.522Z,5.30
2022-11-24T14:36:01.056Z,5.30
2022-11-24T14:38:49.773Z,5.30
2022-11-24T14:41:37.636Z,5.20
2022-11-24T14:44:28.140Z,5.20
2022-11-24T14:47:27.157Z,5.20
2022-11-24T14:50:19.964Z,5.30
2022-11-24T14:53:14.846Z,5.20
2022-11-24T14:56:10.080Z,5.30
2022-11-24T14:58:59.295Z,5.30
2022-11-24T15:01:48.018Z,5.20
2022-11-24T15:07:44.508Z,5.20
2022-11-24T15:10:36.207Z,5.20
2022-11-24T15:13:25.529Z,5.20
2022-11-24T15:16:19.369Z,5.20
2022-11-24T15:19:16.920Z,5.20
2022-11-24T15:22:28.410Z,5.20
2022-11-24T15:25:31.487Z,5.20
2022-11-24T15:28:19.540Z,5.20
2022-11-24T15:31:10.516Z,5.10
2022-11-24T15:33:57.777Z,5.10
2022-11-24T15:36:46.793Z,5.10
2022-11-24T15:39:33.872Z,5.00
2022-11-24T15:42:21.427Z,5.00
2022-11-24T15:45:10.249Z,5.00
2022-11-24T15:47:57.364Z,5.00
2022-11-24T15:50:44.833Z,5.00
2022-11-24T15:53:36.334Z,5.00
2022-11-24T15:56:26.308Z,4.90
2022-11-24T15:59:20.245Z,4.90
2022-11-24T16:02:09.880Z,4.90
2022-11-24T16:04:57.261Z,4.80
2022-11-24T16:07:44.919Z,4.80
2022-11-24T16:10:36.972Z,4.70
2022-11-24T16:13:24.383Z,4.70
2022-11-24T16:16:12.970Z,4.70
2022-11-24T16:18:59.875Z,4.70
2022-11-24T16:21:48.995Z,4.80
2022-11-24T16:24:36.730Z,4.80
2022-11-24T16:27:25.864Z,4.80
2022-11-24T16:30:14.718Z,4.70
2022-11-24T16:33:04.524Z,4.70
2022-11-24T16:35:51.829Z,4.70
2022-11-24T16:38:39.314Z,4.60
2022-11-24T16:41:26.725Z,4.60
2022-11-24T16:44:15.587Z,4.60
2022-11-24T16:47:02.888Z,4.60
2022-11-24T16:49:50.614Z,4.60
2022-11-24T16:52:38.113Z,4.60
2022-11-24T16:55:25.518Z,4.50
2022-11-24T16:58:12.941Z,4.60
2022-11-24T17:01:05.496Z,4.50
2022-11-24T17:03:52.823Z,4.50
2022-11-24T17:06:40.725Z,4.50
2022-11-24T17:09:28.205Z,4.40
2022-11-24T17:12:15.736Z,4.40
2022-11-24T17:15:31.304Z,4.40
2022-11-24T17:18:24.384Z,4.30
2022-11-24T17:21:14.926Z,4.30
2022-11-24T17:24:05.239Z,4.30
2022-11-24T17:26:52.268Z,4.30
2022-11-24T17:29:39.755Z,4.40
2022-11-24T17:32:27.099Z,4.40
2022-11-24T17:35:16.265Z,4.30
2022-11-24T17:38:04.321Z,4.20
2022-11-24T17:40:52.262Z,4.20
2022-11-24T17:43:39.656Z,4.10
2022-11-24T17:46:28.386Z,4.10
2022-11-24T17:49:15.882Z,4.20
2022-11-24T17:52:04.754Z,4.30
2022-11-24T17:54:51.819Z,4.30
2022-11-24T17:57:39.153Z,4.30
2022-11-24T18:00:26.786Z,4.30
2022-11-24T18:03:13.834Z,4.40
2022-11-24T18:06:06.243Z,4.40
2022-11-24T18:08:56.730Z,4.40
2022-11-24T18:11:44.518Z,4.40
2022-11-24T18:14:33.371Z,4.50
2022-11-24T18:17:20.693Z,4.50
2022-11-24T18:20:09.311Z,4.50
2022-11-24T18:23:05.435Z,4.50
2022-11-24T18:25:58.813Z,4.40
2022-11-24T18:28:46.719Z,4.40
2022-11-24T18:31:35.488Z,4.30
2022-11-24T18:34:24.651Z,4.30
2022-11-24T18:37:13.409Z,4.40
2022-11-24T18:40:00.549Z,4.30
2022-11-24T18:42:49.037Z,4.30
2022-11-24T18:45:39.402Z,4.40
2022-11-24T18:48:27.653Z,4.40
2022-11-24T18:51:15.288Z,4.40
2022-11-24T18:54:05.148Z,4.30
2022-11-24T18:56:52.456Z,4.20
2022-11-24T18:59:41.113Z,4.30
2022-11-24T19:02:28.245Z,4.20
2022-11-24T19:05:15.865Z,4.20
2022-11-24T19:08:02.895Z,4.20
2022-11-24T19:10:50.328Z,4.20
2022-11-24T19:13:37.883Z,4.10
2022-11-24T19:16:27.885Z,4.10
2022-11-24T19:19:15.041Z,4.10
2022-11-24T19:22:02.871Z,4.20
2022-11-24T19:24:50.789Z,4.10
2022-11-24T19:27:37.967Z,4.10
2022-11-24T19:30:26.142Z,4.00
2022-11-24T19:33:14.717Z,4.00
2022-11-24T19:36:03.361Z,4.00
2022-11-24T19:38:52.305Z,4.00
2022-11-24T19:41:39.379Z,3.80
2022-11-24T19:44:26.881Z,3.70
2022-11-24T19:47:14.284Z,3.50
2022-11-24T19:50:08.936Z,3.40
2022-11-24T19:52:57.849Z,3.40
2022-11-24T19:55:45.234Z,3.30
2022-11-24T19:58:32.594Z,3.30
2022-11-24T20:01:21.494Z,3.20
2022-11-24T20:04:10.383Z,3.10
2022-11-24T20:07:00.162Z,3.20
2022-11-24T20:09:47.707Z,3.10
2022-11-24T20:12:35.169Z,2.90
2022-11-24T20:15:22.603Z,2.90
2022-11-24T20:18:10.140Z,3.00
2022-11-24T20:21:03.165Z,2.90
2022-11-24T20:23:55.981Z,2.90
2022-11-24T20:26:46.005Z,2.80
2022-11-24T20:29:33.877Z,3.00
2022-11-24T20:32:21.296Z,2.70
2022-11-24T20:35:12.360Z,2.70
2022-11-24T20:38:03.917Z,2.70
2022-11-24T20:40:52.773Z,2.70
2022-11-24T20:43:41.010Z,2.50
2022-11-24T20:46:30.755Z,2.50
2022-11-24T20:49:20.470Z,2.50
2022-11-24T20:52:07.935Z,2.50
2022-11-24T20:54:55.390Z,2.50
2022-11-24T20:57:44.476Z,2.50
2022-11-24T21:00:31.797Z,2.40
2022-11-24T21:03:18.958Z,2.40
2022-11-24T21:06:06.685Z,2.40
2022-11-24T21:08:55.263Z,2.40
2022-11-24T21:11:45.682Z,2.40
2022-11-24T21:14:35.473Z,2.40
2022-11-24T21:17:22.897Z,2.30
2022-11-24T21:20:11.507Z,2.30
2022-11-24T21:22:58.925Z,2.30
2022-11-24T21:25:46.364Z,2.40
2022-11-24T21:28:34.260Z,2.40
2022-11-24T21:31:23.269Z,2.40
2022-11-24T21:34:10.799Z,2.30
2022-11-24T21:36:58.097Z,2.30
2022-11-24T21:39:46.021Z,2.40
2022-11-24T21:42:33.321Z,2.40
2022-11-24T21:45:20.697Z,2.50
2022-11-24T21:48:09.674Z,2.50
2022-11-24T21:50:59.549Z,3.20
2022-11-24T21:53:47.786Z,2.70
2022-11-24T21:56:35.378Z,2.70
2022-11-24T21:59:22.898Z,2.80
2022-11-24T22:02:13.181Z,2.80
2022-11-24T22:05:02.009Z,2.80
2022-11-24T22:07:50.247Z,2.80
2022-11-24T22:10:37.244Z,2.80
2022-11-24T22:13:24.589Z,2.90
2022-11-24T22:16:14.271Z,2.90
2022-11-24T22:19:01.884Z,2.90
2022-11-24T22:21:50.868Z,2.80
2022-11-24T22:24:38.107Z,2.80
2022-11-24T22:27:25.258Z,2.90
2022-11-24T22:30:13.192Z,2.90
2022-11-24T22:33:00.350Z,2.90
2022-11-24T22:35:57.113Z,2.90
2022-11-24T22:38:45.900Z,2.90
2022-11-24T22:41:34.609Z,2.90
2022-11-24T22:44:21.763Z,3.00
2022-11-24T22:47:09.515Z,3.00
2022-11-24T22:49:56.715Z,3.00
2022-11-24T22:52:44.144Z,3.10
2022-11-24T22:55:34.754Z,3.20
2022-11-24T22:58:22.203Z,3.20
2022-11-24T23:01:12.801Z,3.20
2022-11-24T23:04:00.669Z,3.30
2022-11-24T23:06:47.954Z,3.30
2022-11-24T23:09:35.360Z,3.30
2022-11-24T23:12:24.245Z,3.40
2022-11-24T23:15:11.792Z,3.40
2022-11-24T23:17:59.240Z,3.40
2022-11-24T23:20:46.630Z,3.40
2022-11-24T23:23:34.441Z,3.40
2022-11-24T23:26:23.598Z,3.40
2022-11-24T23:29:12.591Z,3.40
2022-11-24T23:31:59.786Z,3.40
2022-11-24T23:34:47.270Z,3.40
2022-11-24T23:37:59.847Z,3.40
2022-11-24T23:40:41.501Z,3.40
2022-11-24T23:43:28.824Z,3.40
2022-11-24T23:46:20.386Z,3.40
2022-11-24T23:49:07.698Z,3.40
2022-11-24T23:51:55.015Z,3.50
2022-11-24T23:54:42.358Z,3.50
2022-11-24T23:57:29.857Z,3.50
